CheckWX is a tool to help pilots better visualize weather data.  It is not intended as a substitute for an official pre-flight weather briefing.

23:41:17 UTC

LFPN TAF
Toussus-le-Noble Airport
Toussus-le-Noble, France
TAF LFPN 221700Z 2218/2303 14010KT CAVOK BECMG 2219/2222 -RA TEMPO 2219/2222 13015G25KT TEMPO 2301/2303 BKN013

Nov-22@
18:00 UTC

Nov-22 @ 18:00 UTC

Nov-22@
19:00 UTC

Nov-22 @ 19:00 UTC

TAF LFPN 221700Z 2218/2303 14010KT CAVOK

Expired

Wind
  • 140° at 10 KTS
Conditions
No significant weather
Cloud Levels
  • No significant clouds

Nov-22@
19:00 UTC

Nov-22 @ 19:00 UTC

Nov-22@
22:00 UTC

Nov-22 @ 22:00 UTC

TEMPO 2219/2222 13015G25KT

Expired

Wind
  • 130° at 15 KTS
  • {Gusting to 25 KTS

Nov-22@
19:00 UTC

Nov-22 @ 19:00 UTC

Nov-23@
03:00 UTC

Nov-23 @ 03:00 UTC

BECMG 2219/2222 -RA

Becoming

Becoming Conditions expected by Fri, Nov 22, 2019 @ 22:00 UTC

Wind
  • 140° at 10 KTS
Conditions
Light Rain
Cloud Levels
  • No significant clouds

Nov-23@
01:00 UTC

Nov-23 @ 01:00 UTC

Nov-23@
03:00 UTC

Nov-23 @ 03:00 UTC

TEMPO 2301/2303 BKN013

Temporary

Temporary Changes expected for less than half the time period

Cloud Levels
  • Broken at 1,300' AGL